createdAt,value
2018-10-07T00:01:14.446Z,46.77
2018-10-07T00:03:44.423Z,47.17
2018-10-07T00:06:14.483Z,47.00
2018-10-07T00:08:44.074Z,47.94
2018-10-07T00:11:14.291Z,47.61
2018-10-07T00:13:44.845Z,46.93
2018-10-07T00:16:16.237Z,47.44
2018-10-07T00:18:46.488Z,47.06
2018-10-07T00:21:16.179Z,47.27
2018-10-07T00:23:45.770Z,47.38
2018-10-07T00:26:16.221Z,47.71
2018-10-07T00:28:46.827Z,47.52
2018-10-07T00:31:16.954Z,47.75
2018-10-07T00:33:46.618Z,47.55
2018-10-07T00:36:16.343Z,48.18
2018-10-07T00:38:47.259Z,47.15
2018-10-07T00:41:16.827Z,48.05
2018-10-07T00:43:46.480Z,47.94
2018-10-07T00:46:16.556Z,46.96
2018-10-07T00:48:46.013Z,47.20
2018-10-07T00:51:16.171Z,47.33
2018-10-07T00:53:52.559Z,47.11
2018-10-07T00:56:24.072Z,46.42
2018-10-07T00:58:55.088Z,46.97
2018-10-07T01:01:24.696Z,46.57
2018-10-07T01:03:55.945Z,47.19
2018-10-07T01:06:27.010Z,47.06
2018-10-07T01:08:57.193Z,47.21
2018-10-07T01:11:29.328Z,47.23
2018-10-07T01:14:01.778Z,47.03
2018-10-07T01:16:31.368Z,47.22
2018-10-07T01:19:02.053Z,46.96
2018-10-07T01:21:42.885Z,46.57
2018-10-07T01:24:14.478Z,46.86
2018-10-07T01:26:45.034Z,48.01
2018-10-07T01:29:19.997Z,47.99
2018-10-07T01:31:49.552Z,47.69
2018-10-07T01:34:19.790Z,48.19
2018-10-07T01:36:49.506Z,48.16
2018-10-07T01:39:19.997Z,47.84
2018-10-07T01:41:51.880Z,48.23
2018-10-07T01:44:22.222Z,48.39
2018-10-07T01:46:52.807Z,48.54
2018-10-07T01:49:24.292Z,48.64
2018-10-07T01:51:54.361Z,49.27
2018-10-07T01:54:26.233Z,49.69
2018-10-07T01:56:55.781Z,49.94
2018-10-07T01:59:28.527Z,49.53
2018-10-07T02:02:00.883Z,50.23
2018-10-07T02:04:33.717Z,49.91
2018-10-07T02:07:05.473Z,49.43
2018-10-07T02:09:35.027Z,50.08
2018-10-07T02:12:06.006Z,50.53
2018-10-07T02:14:35.646Z,49.84
2018-10-07T02:17:05.340Z,50.28
2018-10-07T02:19:56.365Z,50.18
2018-10-07T02:22:26.847Z,51.17
2018-10-07T02:24:58.836Z,50.43
2018-10-07T02:27:29.567Z,51.22
2018-10-07T02:30:00.228Z,51.03
2018-10-07T02:32:29.862Z,50.94
2018-10-07T02:35:01.451Z,50.71
2018-10-07T02:37:32.221Z,50.91
2018-10-07T02:40:01.718Z,51.25
2018-10-07T02:42:31.572Z,50.72
2018-10-07T02:45:02.102Z,50.44
2018-10-07T02:47:31.582Z,51.11
2018-10-07T02:50:06.545Z,51.32
2018-10-07T02:52:41.178Z,50.86
2018-10-07T02:55:10.745Z,51.31
2018-10-07T02:57:40.828Z,51.34
2018-10-07T03:00:14.461Z,51.01
2018-10-07T03:02:45.048Z,50.83
2018-10-07T03:05:16.454Z,50.89
2018-10-07T03:07:47.912Z,50.78
2018-10-07T03:10:18.177Z,50.68
2018-10-07T03:12:47.984Z,51.29
2018-10-07T03:15:23.740Z,51.01
2018-10-07T03:17:54.736Z,49.95
2018-10-07T03:20:29.043Z,49.51
2018-10-07T03:22:59.781Z,49.34
2018-10-07T03:25:30.091Z,49.41
2018-10-07T03:28:00.879Z,49.21
2018-10-07T03:30:37.460Z,50.09
2018-10-07T03:33:08.286Z,50.02
2018-10-07T03:35:38.985Z,50.23
2018-10-07T03:38:10.382Z,50.54
2018-10-07T03:40:41.850Z,50.51
2018-10-07T03:43:12.607Z,49.91
2018-10-07T03:45:42.803Z,50.55
2018-10-07T03:48:13.105Z,51.00
2018-10-07T03:50:45.185Z,50.16
2018-10-07T03:53:15.652Z,50.35
2018-10-07T03:55:50.537Z,50.69
2018-10-07T03:58:23.836Z,50.08
2018-10-07T04:03:30.057Z,50.27
2018-10-07T04:05:59.865Z,50.11
2018-10-07T04:08:29.433Z,50.69
2018-10-07T04:10:58.980Z,50.99
2018-10-07T04:13:30.099Z,50.40
2018-10-07T04:16:00.672Z,49.34
2018-10-07T04:18:30.314Z,49.73
2018-10-07T04:20:59.884Z,49.88
2018-10-07T04:23:33.144Z,50.12
2018-10-07T04:26:03.892Z,50.44
2018-10-07T04:28:33.700Z,50.06
2018-10-07T04:31:03.264Z,50.61
2018-10-07T04:33:33.289Z,50.97
2018-10-07T04:36:02.790Z,51.07
2018-10-07T04:38:33.585Z,51.25
2018-10-07T04:41:05.584Z,51.56
2018-10-07T04:43:35.230Z,51.75
2018-10-07T04:46:07.832Z,51.54
2018-10-07T04:48:39.790Z,51.99
2018-10-07T04:51:10.881Z,51.78
2018-10-07T04:53:41.520Z,52.00
2018-10-07T04:56:11.335Z,51.88
2018-10-07T04:58:40.882Z,51.82
2018-10-07T05:01:12.262Z,51.28
2018-10-07T05:03:41.759Z,51.07
2018-10-07T05:06:12.214Z,52.21
2018-10-07T05:08:43.190Z,51.97
2018-10-07T05:11:19.598Z,51.42
2018-10-07T05:13:53.242Z,51.32
2018-10-07T05:16:39.278Z,51.50
2018-10-07T05:19:10.180Z,51.08
2018-10-07T05:21:40.753Z,50.58
2018-10-07T05:24:13.354Z,50.90
2018-10-07T05:26:43.392Z,51.13
2018-10-07T05:29:13.036Z,50.65
2018-10-07T05:31:42.562Z,51.20
2018-10-07T05:34:13.629Z,51.22
2018-10-07T05:36:45.095Z,51.96
2018-10-07T05:39:16.431Z,51.25
2018-10-07T05:41:45.977Z,50.91
2018-10-07T05:44:15.552Z,50.86
2018-10-07T05:46:46.395Z,50.78
2018-10-07T05:49:15.955Z,51.21
2018-10-07T05:51:47.745Z,50.14
2018-10-07T05:54:25.613Z,51.22
2018-10-07T05:56:56.020Z,51.36
2018-10-07T05:59:25.700Z,51.08
2018-10-07T06:01:57.794Z,49.57
2018-10-07T06:04:36.536Z,50.47
2018-10-07T06:07:06.125Z,49.52
2018-10-07T06:09:36.924Z,49.35
2018-10-07T06:12:07.575Z,48.19
2018-10-07T06:14:48.377Z,47.95
2018-10-07T06:17:19.507Z,47.66
2018-10-07T06:19:51.810Z,46.81
2018-10-07T06:22:23.741Z,46.60
2018-10-07T06:24:59.100Z,45.89
2018-10-07T06:27:33.065Z,45.96
2018-10-07T06:30:03.940Z,45.48
2018-10-07T06:32:33.490Z,45.52
2018-10-07T06:35:03.055Z,44.25
2018-10-07T06:37:32.675Z,43.96
2018-10-07T06:40:03.959Z,43.59
2018-10-07T06:45:13.167Z,43.46
2018-10-07T06:47:45.328Z,43.46
2018-10-07T06:50:16.219Z,42.83
2018-10-07T06:52:49.517Z,42.75
2018-10-07T06:55:22.672Z,42.06
2018-10-07T06:57:52.860Z,42.34
2018-10-07T07:00:24.377Z,42.63
2018-10-07T07:02:56.247Z,42.69
2018-10-07T07:05:30.108Z,42.97
2018-10-07T07:08:04.443Z,42.82
2018-10-07T07:10:35.402Z,43.18
2018-10-07T07:13:05.901Z,42.44
2018-10-07T07:15:35.625Z,42.84
2018-10-07T07:18:05.621Z,43.44
2018-10-07T07:20:35.923Z,43.64
2018-10-07T07:23:05.620Z,43.44
2018-10-07T07:25:38.075Z,43.30
2018-10-07T07:28:08.728Z,43.25
2018-10-07T07:30:38.983Z,43.68
2018-10-07T07:33:09.651Z,43.74
2018-10-07T07:35:39.283Z,43.47
2018-10-07T07:38:10.349Z,43.16
2018-10-07T07:40:40.317Z,43.45
2018-10-07T07:43:10.969Z,43.13
2018-10-07T07:45:41.370Z,42.67
2018-10-07T07:48:11.421Z,43.27
2018-10-07T07:50:41.891Z,43.12
2018-10-07T07:53:13.985Z,42.71
2018-10-07T07:55:44.923Z,43.08
2018-10-07T07:58:14.766Z,41.87
2018-10-07T08:00:44.504Z,41.12
2018-10-07T08:03:14.745Z,41.11
2018-10-07T08:05:46.822Z,42.06
2018-10-07T08:08:17.341Z,41.52
2018-10-07T08:10:47.413Z,41.91
2018-10-07T08:13:17.186Z,41.38
2018-10-07T08:15:47.645Z,40.85
2018-10-07T08:18:18.083Z,40.90
2018-10-07T08:20:48.100Z,41.26
2018-10-07T08:23:22.168Z,40.49
2018-10-07T08:25:52.701Z,40.91
2018-10-07T08:28:22.447Z,41.25
2018-10-07T08:30:52.420Z,40.82
2018-10-07T08:33:26.172Z,40.09
2018-10-07T08:35:57.357Z,40.24
2018-10-07T08:38:32.523Z,39.91
2018-10-07T08:41:07.375Z,39.90
2018-10-07T08:43:43.772Z,39.67
2018-10-07T08:46:13.390Z,39.75
2018-10-07T08:48:43.609Z,39.20
2018-10-07T08:51:20.572Z,39.74
2018-10-07T08:53:52.472Z,39.43
2018-10-07T08:56:22.097Z,39.44
2018-10-07T08:58:51.980Z,39.13
2018-10-07T09:01:22.203Z,39.56
2018-10-07T09:03:53.181Z,38.98
2018-10-07T09:06:28.470Z,39.37
2018-10-07T09:08:59.365Z,39.67
2018-10-07T09:11:30.424Z,39.20
2018-10-07T09:14:03.883Z,38.98
2018-10-07T09:16:33.739Z,39.12
2018-10-07T09:19:04.959Z,39.13
2018-10-07T09:21:35.651Z,39.32
2018-10-07T09:24:09.105Z,38.96
2018-10-07T09:26:38.815Z,39.07
2018-10-07T09:29:08.835Z,38.16
2018-10-07T09:31:38.539Z,38.91
2018-10-07T09:34:08.487Z,38.47
2018-10-07T09:36:39.266Z,38.12
2018-10-07T09:39:11.776Z,37.63
2018-10-07T09:41:42.509Z,37.90
2018-10-07T09:44:12.255Z,37.90
2018-10-07T09:46:43.755Z,37.15
2018-10-07T09:49:15.615Z,37.51
2018-10-07T09:51:45.274Z,37.55
2018-10-07T09:54:15.078Z,36.71
2018-10-07T09:56:45.817Z,36.75
2018-10-07T09:59:16.325Z,37.92
2018-10-07T10:01:47.435Z,38.12
2018-10-07T10:04:21.885Z,39.13
2018-10-07T10:06:52.728Z,38.82
2018-10-07T10:09:25.215Z,38.93
2018-10-07T10:11:55.273Z,39.40
2018-10-07T10:14:25.466Z,40.11
2018-10-07T10:16:58.871Z,39.44
2018-10-07T10:19:51.523Z,40.44
2018-10-07T10:22:34.760Z,39.56
2018-10-07T10:25:09.435Z,40.02
2018-10-07T10:27:46.077Z,39.83
2018-10-07T10:30:26.552Z,40.19
2018-10-07T10:33:09.210Z,39.85
2018-10-07T10:35:59.460Z,40.03
2018-10-07T10:38:39.917Z,40.41
2018-10-07T10:41:17.988Z,41.07
2018-10-07T10:43:58.073Z,40.88
2018-10-07T10:46:54.846Z,40.92
2018-10-07T10:50:34.509Z,39.95
2018-10-07T10:53:29.485Z,40.13
2018-10-07T10:56:10.861Z,40.18
2018-10-07T11:01:46.311Z,40.48
2018-10-07T11:04:22.279Z,40.58
2018-10-07T11:09:08.536Z,40.63
2018-10-07T11:11:59.751Z,40.19
2018-10-07T11:16:43.337Z,40.66
2018-10-07T11:20:23.739Z,40.22
2018-10-07T11:23:18.229Z,39.08
2018-10-07T11:25:58.868Z,37.95
2018-10-07T11:30:40.609Z,38.00
2018-10-07T11:33:23.889Z,35.91
2018-10-07T11:38:43.907Z,36.27
2018-10-07T11:41:37.508Z,36.64
2018-10-07T11:44:21.405Z,35.83
2018-10-07T11:49:08.191Z,35.92
2018-10-07T11:53:47.287Z,35.72
2018-10-07T11:56:17.561Z,35.93
2018-10-07T11:58:47.642Z,36.09
2018-10-07T12:01:19.507Z,35.54
2018-10-07T12:03:53.834Z,36.22
2018-10-07T12:06:25.225Z,35.62
2018-10-07T12:08:55.585Z,36.00
2018-10-07T12:11:29.026Z,35.28
2018-10-07T12:14:01.879Z,35.63
2018-10-07T12:16:32.584Z,35.20
2018-10-07T12:19:04.646Z,35.25
2018-10-07T12:21:36.374Z,35.29
2018-10-07T12:24:06.866Z,34.45
2018-10-07T12:26:41.438Z,34.64
2018-10-07T12:29:12.051Z,34.23
2018-10-07T12:31:43.849Z,35.09
2018-10-07T12:34:18.343Z,34.88
2018-10-07T12:36:49.530Z,34.14
2018-10-07T12:39:24.894Z,33.75
2018-10-07T12:41:57.396Z,33.04
2018-10-07T12:44:27.942Z,33.86
2018-10-07T12:47:02.018Z,34.56
2018-10-07T12:49:38.867Z,33.59
2018-10-07T12:52:10.593Z,33.62
2018-10-07T12:54:41.381Z,34.16
2018-10-07T12:57:11.863Z,34.54
2018-10-07T12:59:43.836Z,35.27
2018-10-07T13:02:13.985Z,35.52
2018-10-07T13:04:46.927Z,35.36
2018-10-07T13:07:19.746Z,35.75
2018-10-07T13:09:51.187Z,35.83
2018-10-07T13:12:20.843Z,35.90
2018-10-07T13:14:51.152Z,36.17
2018-10-07T13:17:21.372Z,36.63
2018-10-07T13:19:53.594Z,36.43
2018-10-07T13:22:26.644Z,37.20
2018-10-07T13:24:57.098Z,36.58
2018-10-07T13:27:29.293Z,36.85
2018-10-07T13:30:00.675Z,37.32
2018-10-07T13:32:34.562Z,37.35
2018-10-07T13:35:07.605Z,38.42
2018-10-07T13:37:38.374Z,38.49
2018-10-07T13:40:09.255Z,38.04
2018-10-07T13:42:43.363Z,38.49
2018-10-07T13:45:16.274Z,38.96
2018-10-07T13:47:47.585Z,38.91
2018-10-07T13:50:19.317Z,39.93
2018-10-07T13:52:51.876Z,39.60
2018-10-07T13:55:21.501Z,40.18
2018-10-07T13:57:52.857Z,40.88
2018-10-07T14:00:27.230Z,39.95
2018-10-07T14:03:01.175Z,40.32
2018-10-07T14:05:40.076Z,40.05
2018-10-07T14:08:10.791Z,41.00
2018-10-07T14:10:43.119Z,40.73
2018-10-07T14:13:13.187Z,40.89
2018-10-07T14:15:43.830Z,41.57
2018-10-07T14:18:14.696Z,41.27
2018-10-07T14:20:47.433Z,41.73
2018-10-07T14:23:17.773Z,41.51
2018-10-07T14:25:49.144Z,41.40
2018-10-07T14:28:21.482Z,41.95
2018-10-07T14:30:53.541Z,41.34
2018-10-07T14:33:25.028Z,41.61
2018-10-07T14:35:57.680Z,41.47
2018-10-07T14:38:29.334Z,41.33
2018-10-07T14:41:00.199Z,41.65
2018-10-07T14:43:31.429Z,41.34
2018-10-07T14:46:01.875Z,40.50
2018-10-07T14:48:33.585Z,41.48
2018-10-07T14:51:06.024Z,40.90
2018-10-07T14:54:00.483Z,41.18
2018-10-07T14:56:31.061Z,41.12
2018-10-07T14:59:06.601Z,41.29
2018-10-07T15:01:37.955Z,41.18
2018-10-07T15:04:08.705Z,40.51
2018-10-07T15:06:41.051Z,40.88
2018-10-07T15:09:12.475Z,40.52
2018-10-07T15:11:43.245Z,39.84
2018-10-07T15:14:15.622Z,39.96
2018-10-07T15:16:47.679Z,39.47
2018-10-07T15:19:19.122Z,38.30
2018-10-07T15:21:50.668Z,39.08
2018-10-07T15:24:21.225Z,38.65
2018-10-07T15:26:52.667Z,38.68
2018-10-07T15:29:24.247Z,39.08
2018-10-07T15:31:55.953Z,39.30
2018-10-07T15:34:26.923Z,38.84
2018-10-07T15:36:57.651Z,38.13
2018-10-07T15:39:29.162Z,37.99
2018-10-07T15:42:00.944Z,37.73
2018-10-07T15:44:34.126Z,37.95
2018-10-07T15:47:07.747Z,38.66
2018-10-07T15:49:40.637Z,38.16
2018-10-07T15:52:12.156Z,37.60
2018-10-07T15:54:44.524Z,37.25
2018-10-07T15:57:17.241Z,36.96
2018-10-07T15:59:51.790Z,37.53
2018-10-07T16:02:24.489Z,37.48
2018-10-07T16:04:57.585Z,37.22
2018-10-07T16:07:30.469Z,37.42
2018-10-07T16:10:02.851Z,37.52
2018-10-07T16:12:35.345Z,38.20
2018-10-07T16:15:08.726Z,38.26
2018-10-07T16:17:40.911Z,38.44
2018-10-07T16:20:15.220Z,39.20
2018-10-07T16:23:04.479Z,39.11
2018-10-07T16:25:39.578Z,39.06
2018-10-07T16:28:16.036Z,39.91
2018-10-07T16:30:47.702Z,39.97
2018-10-07T16:33:20.890Z,39.80
2018-10-07T16:36:08.525Z,40.44
2018-10-07T16:38:41.193Z,39.88
2018-10-07T16:41:15.237Z,40.51
2018-10-07T16:43:46.644Z,41.03
2018-10-07T16:46:19.282Z,40.73
2018-10-07T16:48:51.375Z,40.55
2018-10-07T16:51:24.238Z,40.20
2018-10-07T16:53:58.456Z,41.13
2018-10-07T16:56:32.361Z,41.24
2018-10-07T16:59:08.830Z,40.74
2018-10-07T17:01:40.405Z,41.46
2018-10-07T17:04:11.975Z,41.53
2018-10-07T17:06:45.197Z,40.31
2018-10-07T17:09:16.902Z,40.83
2018-10-07T17:11:48.476Z,40.03
2018-10-07T17:14:20.552Z,40.63
2018-10-07T17:16:54.456Z,40.08
2018-10-07T17:19:27.285Z,40.16
2018-10-07T17:22:00.601Z,40.37
2018-10-07T17:24:36.814Z,39.87
2018-10-07T17:27:11.265Z,40.06
2018-10-07T17:29:45.085Z,39.46
2018-10-07T17:32:17.441Z,39.04
2018-10-07T17:34:49.953Z,39.50
2018-10-07T17:37:21.682Z,39.17
2018-10-07T17:39:54.017Z,39.93
2018-10-07T17:42:27.520Z,40.64
2018-10-07T17:45:00.129Z,39.87
2018-10-07T17:47:33.205Z,40.30
2018-10-07T17:50:07.410Z,40.32
2018-10-07T17:52:42.338Z,40.39
2018-10-07T17:55:15.285Z,40.42
2018-10-07T17:57:49.557Z,40.47
2018-10-07T18:00:23.081Z,40.72
2018-10-07T18:02:55.364Z,41.02
2018-10-07T18:05:28.693Z,40.77
2018-10-07T18:08:01.385Z,41.02
2018-10-07T18:10:33.921Z,41.23
2018-10-07T18:13:15.816Z,40.36
2018-10-07T18:15:56.934Z,40.79
2018-10-07T18:18:30.026Z,40.82
2018-10-07T18:21:02.709Z,41.77
2018-10-07T18:23:34.933Z,41.81
2018-10-07T18:26:08.509Z,41.58
2018-10-07T18:28:41.260Z,42.64
2018-10-07T18:31:16.022Z,42.25
2018-10-07T18:33:49.432Z,42.99
2018-10-07T18:36:21.393Z,42.88
2018-10-07T18:38:54.587Z,43.60
2018-10-07T18:41:27.394Z,43.02
2018-10-07T18:44:00.394Z,43.34
2018-10-07T18:46:34.104Z,43.69
2018-10-07T18:49:09.999Z,43.91
2018-10-07T18:51:41.135Z,43.93
2018-10-07T18:54:11.761Z,44.13
2018-10-07T18:56:42.512Z,44.41
2018-10-07T18:59:13.202Z,44.46
2018-10-07T19:01:45.208Z,44.82
2018-10-07T19:04:17.705Z,45.30
2018-10-07T19:06:51.845Z,44.58
2018-10-07T19:09:24.318Z,44.52
2018-10-07T19:11:58.406Z,44.21
2018-10-07T19:14:31.270Z,44.47
2018-10-07T19:17:04.400Z,44.38
2018-10-07T19:19:39.011Z,45.04
2018-10-07T19:22:11.641Z,45.18
2018-10-07T19:24:42.738Z,45.31
2018-10-07T19:27:14.514Z,45.01
2018-10-07T19:29:49.266Z,45.31
2018-10-07T19:32:21.415Z,45.44
2018-10-07T19:34:55.031Z,44.71
2018-10-07T19:37:27.736Z,45.66
2018-10-07T19:39:59.605Z,45.58
2018-10-07T19:42:35.396Z,45.86
2018-10-07T19:45:13.464Z,45.26
2018-10-07T19:47:44.355Z,45.14
2018-10-07T19:50:17.276Z,44.89
2018-10-07T19:52:48.375Z,45.54
2018-10-07T19:55:19.604Z,45.72
2018-10-07T19:57:50.386Z,45.66
2018-10-07T20:00:24.692Z,45.50
2018-10-07T20:02:57.109Z,45.15
2018-10-07T20:05:30.558Z,45.96
2018-10-07T20:08:02.630Z,45.51
2018-10-07T20:10:35.193Z,45.68
2018-10-07T20:13:07.302Z,45.55
2018-10-07T20:18:44.690Z,45.94
2018-10-07T20:21:17.368Z,46.08
2018-10-07T20:23:48.486Z,45.47
2018-10-07T20:26:26.855Z,45.55
2018-10-07T20:29:00.612Z,45.09
2018-10-07T20:31:31.773Z,45.40
2018-10-07T20:34:02.565Z,45.44
2018-10-07T20:36:33.927Z,45.47
2018-10-07T20:39:06.012Z,45.92
2018-10-07T20:41:36.794Z,45.55
2018-10-07T20:44:08.332Z,46.14
2018-10-07T20:46:41.016Z,45.84
2018-10-07T20:49:13.439Z,45.75
2018-10-07T20:51:45.735Z,46.02
2018-10-07T20:54:18.340Z,45.88
2018-10-07T20:56:49.711Z,46.06
2018-10-07T20:59:28.334Z,46.25
2018-10-07T21:02:01.198Z,45.62
2018-10-07T21:04:34.311Z,46.16
2018-10-07T21:07:08.329Z,46.56
2018-10-07T21:09:41.492Z,46.08
2018-10-07T21:12:12.105Z,46.55
2018-10-07T21:14:43.428Z,46.23
2018-10-07T21:17:16.816Z,46.42
2018-10-07T21:19:48.152Z,45.57
2018-10-07T21:22:22.917Z,46.29
2018-10-07T21:24:54.352Z,46.27
2018-10-07T21:27:24.979Z,46.30
2018-10-07T21:29:56.609Z,46.64
2018-10-07T21:32:28.011Z,46.42
2018-10-07T21:34:59.977Z,46.48
2018-10-07T21:37:29.603Z,45.73
2018-10-07T21:40:02.583Z,46.49
2018-10-07T21:42:33.025Z,46.26
2018-10-07T21:45:06.667Z,46.10
2018-10-07T21:47:47.478Z,46.44
2018-10-07T21:50:20.239Z,45.83
2018-10-07T21:52:52.938Z,45.56
2018-10-07T21:55:24.334Z,45.78
2018-10-07T21:57:55.206Z,46.19
2018-10-07T22:00:26.453Z,45.52
2018-10-07T22:03:00.069Z,45.72
2018-10-07T22:05:32.073Z,45.59
2018-10-07T22:08:05.758Z,45.58
2018-10-07T22:10:38.152Z,45.68
2018-10-07T22:13:09.363Z,45.63
2018-10-07T22:15:44.596Z,45.66
2018-10-07T22:18:17.910Z,45.67
2018-10-07T22:20:48.454Z,45.76
2018-10-07T22:23:19.722Z,45.94
2018-10-07T22:25:50.509Z,46.30
2018-10-07T22:28:21.097Z,46.26
2018-10-07T22:30:56.276Z,46.52
2018-10-07T22:33:27.637Z,46.96
2018-10-07T22:35:59.279Z,46.98
2018-10-07T22:38:33.590Z,47.07
2018-10-07T22:41:05.327Z,46.75
2018-10-07T22:43:38.294Z,46.50
2018-10-07T22:46:10.103Z,46.86
2018-10-07T22:48:42.137Z,46.95
2018-10-07T22:51:12.348Z,47.51
2018-10-07T22:53:44.297Z,47.17
2018-10-07T22:56:15.425Z,47.20
2018-10-07T22:58:47.640Z,47.49
2018-10-07T23:01:18.803Z,47.19
2018-10-07T23:03:49.675Z,47.76
2018-10-07T23:06:22.418Z,47.72
2018-10-07T23:08:54.548Z,47.71
2018-10-07T23:11:27.101Z,47.44
2018-10-07T23:13:59.094Z,47.31
2018-10-07T23:16:30.114Z,48.21
2018-10-07T23:19:01.969Z,47.80
2018-10-07T23:21:33.311Z,48.01
2018-10-07T23:24:05.878Z,48.39
2018-10-07T23:26:37.075Z,48.01
2018-10-07T23:29:07.533Z,48.66
2018-10-07T23:31:39.059Z,47.79
2018-10-07T23:34:10.929Z,48.61
2018-10-07T23:36:42.807Z,48.37
2018-10-07T23:39:17.255Z,48.29
2018-10-07T23:41:47.860Z,48.32
2018-10-07T23:44:17.615Z,48.20
2018-10-07T23:46:48.451Z,48.38
2018-10-07T23:49:19.548Z,48.80
2018-10-07T23:51:53.577Z,48.01
2018-10-07T23:54:25.822Z,48.01
2018-10-07T23:56:56.399Z,48.06
2018-10-07T23:59:34.576Z,48.70
